createdAt,value
2019-01-21T00:04:25.566Z,68.4
2019-01-21T00:09:22.799Z,68.2
2019-01-21T00:14:20.163Z,68.4
2019-01-21T00:19:17.499Z,68.2
2019-01-21T00:24:14.971Z,68.1
2019-01-21T00:29:12.579Z,68
2019-01-21T00:34:09.512Z,68.4
2019-01-21T00:39:07.013Z,68
2019-01-21T00:44:04.271Z,67.8
2019-01-21T00:49:01.716Z,67.9
2019-01-21T00:53:58.927Z,68
2019-01-21T00:58:56.073Z,68.4
2019-01-21T01:03:53.134Z,68.2
2019-01-21T01:13:47.978Z,68.2
2019-01-21T01:18:45.395Z,68.3
2019-01-21T01:23:42.720Z,68.3
2019-01-21T01:28:40.039Z,68.3
2019-01-21T01:33:37.363Z,68.3
2019-01-21T01:38:34.807Z,68.4
2019-01-21T01:43:31.849Z,68.3
2019-01-21T01:48:29.322Z,68.4
2019-01-21T01:53:26.604Z,68.4
2019-01-21T01:58:24.478Z,68.6
2019-01-21T02:03:21.628Z,68.7
2019-01-21T02:08:18.850Z,68.6
2019-01-21T02:13:16.359Z,68.3
2019-01-21T02:18:13.879Z,68.5
2019-01-21T02:23:11.147Z,68.4
2019-01-21T02:28:08.604Z,68.4
2019-01-21T02:33:06.079Z,68
2019-01-21T02:38:03.359Z,68
2019-01-21T02:43:00.801Z,67.8
2019-01-21T02:48:00.154Z,67.7
2019-01-21T02:52:56.319Z,67.8
2019-01-21T02:57:53.550Z,67.5
2019-01-21T03:02:50.906Z,67.5
2019-01-21T03:07:48.214Z,67.4
2019-01-21T03:12:45.659Z,67.4
2019-01-21T03:17:43.194Z,67
2019-01-21T03:22:40.504Z,66.7
2019-01-21T03:27:37.957Z,66.7
2019-01-21T03:32:35.175Z,66.6
2019-01-21T03:37:32.523Z,66.5
2019-01-21T03:42:29.923Z,66.8
2019-01-21T03:47:27.429Z,66.2
2019-01-21T03:52:24.709Z,66.3
2019-01-21T03:57:22.272Z,66.3
2019-01-21T04:02:19.595Z,65.9
2019-01-21T04:07:17.072Z,65.9
2019-01-21T04:12:13.948Z,65.8
2019-01-21T04:17:11.530Z,65.7
2019-01-21T04:22:08.858Z,66
2019-01-21T04:27:06.664Z,66.3
2019-01-21T04:32:04.081Z,66.3
2019-01-21T04:37:01.466Z,66.2
2019-01-21T04:41:58.931Z,65.8
2019-01-21T04:46:56.354Z,66.3
2019-01-21T04:51:53.427Z,66.4
2019-01-21T04:56:51.153Z,66.2
2019-01-21T05:01:48.458Z,66.2
2019-01-21T05:06:45.709Z,66.6
2019-01-21T05:11:42.793Z,66.2
2019-01-21T05:16:40.148Z,65.9
2019-01-21T05:21:37.554Z,66
2019-01-21T05:26:34.894Z,66.2
2019-01-21T05:31:32.073Z,66.4
2019-01-21T05:36:29.450Z,66.4
2019-01-21T05:41:26.786Z,66.5
2019-01-21T05:46:23.959Z,66.3
2019-01-21T05:51:21.427Z,66.6
2019-01-21T05:56:18.984Z,66.2
2019-01-21T06:01:15.943Z,66.2
2019-01-21T06:06:14.116Z,66.2
2019-01-21T06:11:11.125Z,66.4
2019-01-21T06:16:09.084Z,66.2
2019-01-21T06:21:06.369Z,66.6
2019-01-21T06:26:04.178Z,66.2
2019-01-21T06:31:01.349Z,66.2
2019-01-21T06:35:59.302Z,66
2019-01-21T06:40:57.062Z,66.1
2019-01-21T06:45:54.327Z,66
2019-01-21T06:50:51.589Z,66
2019-01-21T06:55:48.759Z,65.8
2019-01-21T07:00:45.991Z,65.9
2019-01-21T07:05:43.306Z,65.7
2019-01-21T07:10:40.301Z,66
2019-01-21T07:15:37.501Z,66
2019-01-21T07:20:35.185Z,65.9
2019-01-21T07:25:33.454Z,65.8
2019-01-21T07:30:30.578Z,65.6
2019-01-21T07:35:26.817Z,65.6
2019-01-21T07:40:24.093Z,64.8
2019-01-21T07:45:20.298Z,65.5
2019-01-21T07:50:17.395Z,65.7
2019-01-21T07:55:14.641Z,65.7
2019-01-21T08:00:12.096Z,65.3
2019-01-21T08:05:09.628Z,65.6
2019-01-21T08:10:06.914Z,65.6
2019-01-21T08:15:04.152Z,65.1
2019-01-21T08:20:01.206Z,65
2019-01-21T08:24:58.854Z,65.3
2019-01-21T08:29:56.086Z,65.3
2019-01-21T08:34:52.991Z,65.6
2019-01-21T08:39:50.313Z,65.6
2019-01-21T08:44:47.755Z,65.4
2019-01-21T08:49:45.293Z,65.8
2019-01-21T08:54:42.760Z,65.7
2019-01-21T08:59:39.691Z,65.4
2019-01-21T09:04:36.842Z,64.9
2019-01-21T09:09:33.982Z,64.9
2019-01-21T09:14:31.163Z,65
2019-01-21T09:19:28.180Z,65
2019-01-21T09:24:25.492Z,65.2
2019-01-21T09:29:22.701Z,65.2
2019-01-21T09:34:20.396Z,64.6
2019-01-21T09:39:17.183Z,65
2019-01-21T09:44:14.258Z,64.4
2019-01-21T09:49:11.556Z,64.6
2019-01-21T09:54:09.657Z,64.8
2019-01-21T09:59:06.750Z,64.1
2019-01-21T10:04:04.091Z,64.2
2019-01-21T10:09:01.501Z,64.5
2019-01-21T10:13:58.919Z,63.9
2019-01-21T10:18:57.045Z,63.8
2019-01-21T10:23:54.256Z,63.6
2019-01-21T10:28:51.763Z,63.3
2019-01-21T10:33:49.186Z,62.9
2019-01-21T10:38:46.301Z,62.9
2019-01-21T10:43:43.632Z,63
2019-01-21T10:48:40.953Z,62.8
2019-01-21T10:53:38.599Z,62.8
2019-01-21T10:58:35.926Z,63.1
2019-01-21T11:03:33.476Z,63
2019-01-21T11:08:30.871Z,62.7
2019-01-21T11:13:28.127Z,62.5
2019-01-21T11:18:25.791Z,62.3
2019-01-21T11:23:23.268Z,62.4
2019-01-21T11:28:20.703Z,62.2
2019-01-21T11:33:18.173Z,62.4
2019-01-21T11:38:16.171Z,62
2019-01-21T11:43:12.793Z,62.2
2019-01-21T11:48:10.338Z,62
2019-01-21T11:53:07.453Z,62.2
2019-01-21T11:58:04.691Z,62.3
2019-01-21T12:03:01.941Z,62.7
2019-01-21T12:07:59.385Z,62.6
2019-01-21T12:12:57.043Z,62.7
2019-01-21T12:17:54.289Z,62.6
2019-01-21T12:22:51.462Z,62.6
2019-01-21T12:27:48.944Z,62.3
2019-01-21T12:32:46.136Z,62.3
2019-01-21T12:37:43.069Z,62.4
2019-01-21T12:42:40.433Z,62.7
2019-01-21T12:47:37.637Z,62.4
2019-01-21T12:52:34.876Z,62.5
2019-01-21T12:57:32.413Z,62.8
2019-01-21T13:02:30.724Z,62.7
2019-01-21T13:07:26.878Z,62.2
2019-01-21T13:12:24.249Z,62.7
2019-01-21T13:17:21.805Z,63.1
2019-01-21T13:22:19.244Z,62.9
2019-01-21T13:27:16.596Z,62.8
2019-01-21T13:32:13.900Z,62.7
2019-01-21T13:37:11.209Z,62.8
2019-01-21T13:42:08.701Z,62.5
2019-01-21T13:47:05.714Z,62.9
2019-01-21T13:52:03.190Z,63
2019-01-21T13:57:00.424Z,62.9
2019-01-21T14:01:57.511Z,63.1
2019-01-21T14:06:55.028Z,63
2019-01-21T14:11:52.660Z,62.7
2019-01-21T14:16:50.008Z,62.9
2019-01-21T14:21:46.975Z,62.5
2019-01-21T14:26:44.263Z,62.7
2019-01-21T14:31:41.560Z,62.9
2019-01-21T14:36:38.911Z,63.2
2019-01-21T14:41:35.865Z,63.5
2019-01-21T14:46:33.315Z,63.5
2019-01-21T14:51:30.889Z,63.4
2019-01-21T14:56:28.290Z,63
2019-01-21T15:01:25.843Z,62.6
2019-01-21T15:06:23.878Z,62.9
2019-01-21T15:11:21.348Z,63.1
2019-01-21T15:16:18.302Z,63.1
2019-01-21T15:21:15.673Z,63.3
2019-01-21T15:26:13.439Z,63.4
2019-01-21T15:31:10.642Z,63.4
2019-01-21T15:36:07.981Z,63.3
2019-01-21T15:41:06.695Z,63.6
2019-01-21T15:46:04.141Z,63.5
2019-01-21T15:51:05.061Z,63.3
2019-01-21T15:55:59.120Z,63.6
2019-01-21T16:00:56.371Z,63.9
2019-01-21T16:05:53.734Z,63.5
2019-01-21T16:10:51.421Z,63.8
2019-01-21T16:15:48.859Z,64
2019-01-21T16:20:45.874Z,64.1
2019-01-21T16:25:43.037Z,64
2019-01-21T16:30:40.534Z,64.1
2019-01-21T16:35:37.829Z,64.2
2019-01-21T16:40:35.179Z,64.3
2019-01-21T16:45:32.711Z,64.5
2019-01-21T16:50:30.326Z,64.3
2019-01-21T16:55:27.652Z,64.2
2019-01-21T17:00:25.067Z,64
2019-01-21T17:05:22.260Z,64.1
2019-01-21T17:10:19.392Z,64
2019-01-21T17:15:16.768Z,64
2019-01-21T17:20:13.957Z,63.9
2019-01-21T17:25:11.160Z,64.1
2019-01-21T17:30:08.765Z,64.2
2019-01-21T17:35:06.138Z,64.3
2019-01-21T17:40:04.626Z,64.2
2019-01-21T17:45:00.678Z,64.1
2019-01-21T17:49:58.071Z,64
2019-01-21T17:54:55.992Z,63.9
2019-01-21T17:59:53.446Z,64
2019-01-21T18:04:50.870Z,63.7
2019-01-21T18:09:48.365Z,63.7
2019-01-21T18:14:45.939Z,63.6
2019-01-21T18:19:43.239Z,63.6
2019-01-21T18:24:41.134Z,64.1
2019-01-21T18:29:38.380Z,63.7
2019-01-21T18:34:35.730Z,63.7
2019-01-21T18:39:32.876Z,63.8
2019-01-21T18:44:30.172Z,63.6
2019-01-21T18:49:27.517Z,63.7
2019-01-21T18:54:24.996Z,63.9
2019-01-21T18:59:22.268Z,63.6
2019-01-21T19:04:19.962Z,63.8
2019-01-21T19:09:21.819Z,63.8
2019-01-21T19:14:18.079Z,63.8
2019-01-21T19:19:15.005Z,64.1
2019-01-21T19:24:13.093Z,64.1
2019-01-21T19:29:09.702Z,63.5
2019-01-21T19:34:07.567Z,64
2019-01-21T19:39:04.560Z,64
2019-01-21T19:44:02.108Z,63.7
2019-01-21T19:48:59.466Z,63.9
2019-01-21T19:53:56.799Z,63.7
2019-01-21T19:58:54.243Z,63.9
2019-01-21T20:03:51.750Z,63.9
2019-01-21T20:08:48.694Z,64.6
2019-01-21T20:13:46.997Z,64.6
2019-01-21T20:18:43.697Z,64.2
2019-01-21T20:23:41.020Z,64.4
2019-01-21T20:28:38.485Z,64.1
2019-01-21T20:33:35.691Z,64.2
2019-01-21T20:38:32.536Z,64.7
2019-01-21T20:43:29.733Z,64.6
2019-01-21T20:48:27.496Z,64.6
2019-01-21T20:53:24.966Z,64.7
2019-01-21T20:58:22.251Z,64.7
2019-01-21T21:03:19.405Z,64.7
2019-01-21T21:08:16.769Z,64.3
2019-01-21T21:13:14.246Z,64
2019-01-21T21:18:11.040Z,64.4
2019-01-21T21:23:08.152Z,64.3
2019-01-21T21:28:05.712Z,64.3
2019-01-21T21:33:03.044Z,64.3
2019-01-21T21:38:00.432Z,64.3
2019-01-21T21:42:57.383Z,64.6
2019-01-21T21:47:55.299Z,64.5
2019-01-21T21:52:53.116Z,64.4
2019-01-21T21:57:50.493Z,64.7
2019-01-21T22:02:48.169Z,65.2
2019-01-21T22:07:46.039Z,65.6
2019-01-21T22:12:42.972Z,65.9
2019-01-21T22:17:40.404Z,66.3
2019-01-21T22:22:38.007Z,66.2
2019-01-21T22:27:35.577Z,66.5
2019-01-21T22:32:33.354Z,66.5
2019-01-21T22:37:30.427Z,66.3
2019-01-21T22:42:27.746Z,66.8
2019-01-21T22:47:25.428Z,66.8
2019-01-21T22:52:22.503Z,66.9
2019-01-21T22:57:20.112Z,67.1
2019-01-21T23:02:17.350Z,67.2
2019-01-21T23:07:14.856Z,67.3
2019-01-21T23:12:12.347Z,67
2019-01-21T23:17:09.783Z,66.8
2019-01-21T23:22:06.908Z,66.9
2019-01-21T23:27:04.329Z,66.7
2019-01-21T23:32:01.850Z,66.8
2019-01-21T23:36:59.359Z,66.7
2019-01-21T23:41:56.629Z,66.5
2019-01-21T23:46:54.012Z,66.2
2019-01-21T23:51:51.471Z,66
2019-01-21T23:56:49.129Z,65.8
